createdAt,value
2022-12-06T00:01:39.786Z,100901.53
2022-12-06T00:04:11.929Z,100903.50
2022-12-06T00:06:44.426Z,100902.63
2022-12-06T00:09:18.966Z,100903.38
2022-12-06T00:11:47.610Z,100898.09
2022-12-06T00:14:16.268Z,100898.13
2022-12-06T00:16:44.916Z,100894.59
2022-12-06T00:19:15.174Z,100896.34
2022-12-06T00:21:47.425Z,100898.63
2022-12-06T00:24:18.855Z,100891.34
2022-12-06T00:26:49.767Z,100898.56
2022-12-06T00:29:20.987Z,100888.91
2022-12-06T00:31:50.601Z,100891.34
2022-12-06T00:34:19.337Z,100897.59
2022-12-06T00:36:49.235Z,100888.53
2022-12-06T00:39:18.818Z,100884.66
2022-12-06T00:41:48.761Z,100884.50
2022-12-06T00:44:16.951Z,100890.09
2022-12-06T00:46:45.567Z,100879.38
2022-12-06T00:49:13.918Z,100882.03
2022-12-06T00:51:43.550Z,100875.25
2022-12-06T00:54:14.417Z,100877.16
2022-12-06T00:56:42.982Z,100871.03
2022-12-06T00:59:11.672Z,100876.63
2022-12-06T01:01:41.208Z,100877.53
2022-12-06T01:04:11.121Z,100876.34
2022-12-06T01:06:39.761Z,100876.56
2022-12-06T01:09:10.278Z,100881.16
2022-12-06T01:11:40.151Z,100876.22
2022-12-06T01:14:08.697Z,100874.66
2022-12-06T01:16:37.542Z,100873.63
2022-12-06T01:19:06.734Z,100868.41
2022-12-06T01:21:35.295Z,100877.91
2022-12-06T01:24:04.342Z,100888.78
2022-12-06T01:26:35.037Z,100887.91
2022-12-06T01:29:04.448Z,100888.56
2022-12-06T01:31:38.179Z,100886.03
2022-12-06T01:34:11.077Z,100877.16
2022-12-06T01:36:39.698Z,100885.31
2022-12-06T01:39:10.969Z,100877.63
2022-12-06T01:41:40.191Z,100883.06
2022-12-06T01:44:50.377Z,100883.00
2022-12-06T01:47:30.627Z,100883.88
2022-12-06T01:50:13.638Z,100882.94
2022-12-06T01:52:58.789Z,100874.28
2022-12-06T01:55:29.818Z,100878.28
2022-12-06T01:58:01.267Z,100873.25
2022-12-06T02:00:29.575Z,100864.63
2022-12-06T02:03:01.035Z,100863.81
2022-12-06T02:05:34.928Z,100872.00
2022-12-06T02:08:09.532Z,100871.66
2022-12-06T02:10:38.541Z,100875.97
2022-12-06T02:13:09.250Z,100872.63
2022-12-06T02:15:49.217Z,100865.72
2022-12-06T02:18:35.828Z,100868.09
2022-12-06T02:21:36.089Z,100869.41
2022-12-06T02:24:08.859Z,100871.03
2022-12-06T02:26:43.998Z,100863.19
2022-12-06T02:29:17.388Z,100863.38
2022-12-06T02:31:48.942Z,100864.00
2022-12-06T02:34:40.838Z,100873.94
2022-12-06T02:37:36.772Z,100863.47
2022-12-06T02:40:17.285Z,100868.84
2022-12-06T02:42:59.110Z,100861.78
2022-12-06T02:45:34.512Z,100859.09
2022-12-06T02:48:04.497Z,100852.91
2022-12-06T02:50:37.628Z,100851.19
2022-12-06T02:53:09.455Z,100851.22
2022-12-06T02:55:39.049Z,100857.97
2022-12-06T02:58:07.502Z,100857.16
2022-12-06T03:00:43.496Z,100855.53
2022-12-06T03:03:39.389Z,100849.25
2022-12-06T03:06:48.289Z,100852.91
2022-12-06T03:09:47.942Z,100858.88
2022-12-06T03:12:28.905Z,100850.13
2022-12-06T03:15:17.377Z,100853.06
2022-12-06T03:17:54.478Z,100845.81
2022-12-06T03:20:29.838Z,100840.31
2022-12-06T03:23:05.962Z,100841.44
2022-12-06T03:25:36.119Z,100844.81
2022-12-06T03:28:07.097Z,100840.47
2022-12-06T03:30:36.482Z,100840.31
2022-12-06T03:33:05.471Z,100836.09
2022-12-06T03:35:35.368Z,100834.19
2022-12-06T03:38:19.861Z,100836.03
2022-12-06T03:40:50.152Z,100828.19
2022-12-06T03:43:20.508Z,100835.03
2022-12-06T03:46:00.057Z,100837.72
2022-12-06T03:48:42.280Z,100834.31
2022-12-06T03:51:22.878Z,100829.81
2022-12-06T03:53:54.579Z,100829.09
2022-12-06T03:56:23.848Z,100832.63
2022-12-06T03:58:52.592Z,100830.00
2022-12-06T04:01:21.598Z,100835.41
2022-12-06T04:03:50.678Z,100833.63
2022-12-06T04:06:19.100Z,100836.13
2022-12-06T04:08:47.874Z,100835.41
2022-12-06T04:11:16.458Z,100832.81
2022-12-06T04:13:45.581Z,100831.06
2022-12-06T04:16:32.330Z,100831.97
2022-12-06T04:19:01.129Z,100832.66
2022-12-06T04:21:32.455Z,100818.63
2022-12-06T04:24:03.078Z,100826.88
2022-12-06T04:26:31.309Z,100829.34
2022-12-06T04:29:18.550Z,100824.66
2022-12-06T04:32:05.588Z,100823.59
2022-12-06T04:34:52.801Z,100823.31
2022-12-06T04:37:39.568Z,100826.06
2022-12-06T04:40:09.598Z,100818.81
2022-12-06T04:42:56.838Z,100818.81
2022-12-06T04:45:25.447Z,100819.81
2022-12-06T04:47:53.680Z,100822.47
2022-12-06T04:50:22.898Z,100832.63
2022-12-06T04:52:51.688Z,100831.25
2022-12-06T04:55:20.311Z,100833.75
2022-12-06T04:57:48.798Z,100828.69
2022-12-06T05:00:17.768Z,100830.06
2022-12-06T05:02:46.470Z,100826.25
2022-12-06T05:05:15.208Z,100829.34
2022-12-06T05:07:43.588Z,100827.50
2022-12-06T05:10:12.288Z,100827.38
2022-12-06T05:12:40.660Z,100828.69
2022-12-06T05:15:13.606Z,100821.47
2022-12-06T05:17:44.328Z,100826.72
2022-12-06T05:20:14.941Z,100828.03
2022-12-06T05:22:43.496Z,100834.97
2022-12-06T05:25:12.957Z,100837.00
2022-12-06T05:27:41.370Z,100830.44
2022-12-06T05:30:10.732Z,100830.03
2022-12-06T05:32:40.720Z,100829.50
2022-12-06T05:35:10.649Z,100833.75
2022-12-06T05:37:38.979Z,100840.84
2022-12-06T05:40:08.229Z,100839.06
2022-12-06T05:42:36.449Z,100834.00
2022-12-06T05:45:06.981Z,100834.34
2022-12-06T05:47:35.593Z,100834.22
2022-12-06T05:50:05.038Z,100835.53
2022-12-06T05:52:33.268Z,100836.31
2022-12-06T05:55:02.081Z,100832.13
2022-12-06T05:57:30.628Z,100834.84
2022-12-06T05:59:59.514Z,100840.16
2022-12-06T06:02:28.920Z,100837.06
2022-12-06T06:04:57.738Z,100830.94
2022-12-06T06:07:26.009Z,100840.88
2022-12-06T06:09:54.719Z,100853.19
2022-12-06T06:12:23.079Z,100847.69
2022-12-06T06:14:52.488Z,100850.16
2022-12-06T06:17:20.868Z,100848.06
2022-12-06T06:19:52.332Z,100846.94
2022-12-06T06:22:23.527Z,100840.69
2022-12-06T06:24:52.169Z,100843.00
2022-12-06T06:27:20.398Z,100851.53
2022-12-06T06:29:49.057Z,100841.53
2022-12-06T06:32:17.350Z,100849.69
2022-12-06T06:34:46.258Z,100853.09
2022-12-06T06:37:14.560Z,100854.84
2022-12-06T06:39:44.240Z,100849.69
2022-12-06T06:42:12.509Z,100867.38
2022-12-06T06:44:41.150Z,100867.56
2022-12-06T06:47:09.470Z,100872.97
2022-12-06T06:49:38.116Z,100873.16
2022-12-06T06:52:07.049Z,100872.31
2022-12-06T06:54:35.658Z,100876.88
2022-12-06T06:57:04.108Z,100873.50
2022-12-06T06:59:34.089Z,100887.13
2022-12-06T07:02:03.264Z,100889.84
2022-12-06T07:04:32.070Z,100887.34
2022-12-06T07:07:00.980Z,100896.25
2022-12-06T07:09:29.697Z,100895.59
2022-12-06T07:11:58.699Z,100900.09
2022-12-06T07:14:28.409Z,100904.66
2022-12-06T07:16:56.820Z,100911.69
2022-12-06T07:19:26.037Z,100914.69
2022-12-06T07:21:54.421Z,100911.34
2022-12-06T07:24:22.957Z,100910.44
2022-12-06T07:26:51.198Z,100910.59
2022-12-06T07:29:19.776Z,100905.13
2022-12-06T07:31:48.092Z,100906.22
2022-12-06T07:34:16.872Z,100909.28
2022-12-06T07:36:45.120Z,100914.69
2022-12-06T07:39:15.126Z,100909.38
2022-12-06T07:42:02.529Z,100913.19
2022-12-06T07:45:01.918Z,100912.84
2022-12-06T07:47:37.108Z,100910.16
2022-12-06T07:50:12.866Z,100911.13
2022-12-06T07:52:47.628Z,100912.97
2022-12-06T07:55:18.212Z,100918.28
2022-12-06T07:57:46.528Z,100914.91
2022-12-06T08:00:16.509Z,100916.59
2022-12-06T08:02:45.031Z,100917.50
2022-12-06T08:05:14.733Z,100922.06
2022-12-06T08:07:43.313Z,100925.06
2022-12-06T08:10:12.127Z,100926.41
2022-12-06T08:12:40.602Z,100933.25
2022-12-06T08:15:13.299Z,100938.56
2022-12-06T08:17:42.077Z,100934.09
2022-12-06T08:20:11.142Z,100930.44
2022-12-06T08:22:39.341Z,100936.59
2022-12-06T08:25:08.433Z,100937.44
2022-12-06T08:27:36.763Z,100939.38
2022-12-06T08:30:06.752Z,100941.09
2022-12-06T08:32:35.468Z,100923.59
2022-12-06T08:35:04.101Z,100932.53
2022-12-06T08:37:34.654Z,100943.59
2022-12-06T08:40:03.422Z,100944.47
2022-12-06T08:42:31.899Z,100945.19
2022-12-06T08:45:00.423Z,100950.84
2022-12-06T08:47:28.920Z,100950.41
2022-12-06T08:49:59.391Z,100948.75
2022-12-06T08:52:27.970Z,100956.38
2022-12-06T08:54:56.660Z,100947.03
2022-12-06T08:57:25.012Z,100948.88
2022-12-06T08:59:54.035Z,100950.16
2022-12-06T09:02:22.251Z,100952.13
2022-12-06T09:04:52.339Z,100948.75
2022-12-06T09:07:20.820Z,100951.94
2022-12-06T09:09:50.677Z,100952.28
2022-12-06T09:12:18.901Z,100959.69
2022-12-06T09:14:47.895Z,100958.72
2022-12-06T09:17:16.379Z,100970.53
2022-12-06T09:19:44.921Z,100963.56
2022-12-06T09:22:13.191Z,100971.28
2022-12-06T09:24:41.741Z,100962.50
2022-12-06T09:27:10.044Z,100969.84
2022-12-06T09:29:40.864Z,100964.50
2022-12-06T09:32:09.461Z,100970.03
2022-12-06T09:34:38.114Z,100957.50
2022-12-06T09:37:10.994Z,100974.28
2022-12-06T09:39:45.708Z,100962.63
2022-12-06T09:42:51.370Z,100959.38
2022-12-06T09:45:58.461Z,100969.16
2022-12-06T09:48:49.341Z,100967.25
2022-12-06T09:51:32.489Z,100964.53
2022-12-06T09:54:10.804Z,100958.56
2022-12-06T09:56:46.178Z,100961.31
2022-12-06T09:59:38.730Z,100949.88
2022-12-06T10:02:32.822Z,100950.75
2022-12-06T10:05:17.500Z,100942.75
2022-12-06T10:08:21.787Z,100947.13
2022-12-06T10:11:12.120Z,100938.31
2022-12-06T10:14:02.679Z,100943.66
2022-12-06T10:16:54.373Z,100941.41
2022-12-06T10:19:55.863Z,100944.94
2022-12-06T10:22:46.740Z,100938.88
2022-12-06T10:25:25.451Z,100930.97
2022-12-06T10:28:02.809Z,100924.72
2022-12-06T10:30:31.333Z,100931.09
2022-12-06T10:33:10.420Z,100923.28
2022-12-06T10:35:39.130Z,100920.72
2022-12-06T10:38:21.339Z,100921.50
2022-12-06T10:40:51.081Z,100914.91
2022-12-06T10:43:42.022Z,100911.91
2022-12-06T10:46:50.772Z,100907.88
2022-12-06T10:49:27.812Z,100909.03
2022-12-06T10:52:05.067Z,100907.06
2022-12-06T10:54:53.434Z,100906.72
2022-12-06T10:57:29.956Z,100907.88
2022-12-06T11:00:15.217Z,100901.34
2022-12-06T11:03:12.235Z,100906.09
2022-12-06T11:06:17.772Z,100896.69
2022-12-06T11:08:53.566Z,100900.28
2022-12-06T11:11:31.243Z,100901.72
2022-12-06T11:14:11.776Z,100907.09
2022-12-06T11:17:16.223Z,100904.31
2022-12-06T11:19:49.275Z,100897.97
2022-12-06T11:22:41.485Z,100891.81
2022-12-06T11:25:32.410Z,100889.28
2022-12-06T11:28:22.042Z,100888.97
2022-12-06T11:30:53.313Z,100879.06
2022-12-06T11:33:28.914Z,100879.69
2022-12-06T11:36:00.313Z,100882.16
2022-12-06T11:38:29.242Z,100883.31
2022-12-06T11:40:58.679Z,100878.06
2022-12-06T11:43:32.033Z,100875.25
2022-12-06T11:46:01.192Z,100869.28
2022-12-06T11:48:33.430Z,100873.59
2022-12-06T11:51:04.000Z,100864.81
2022-12-06T11:53:53.020Z,100863.22
2022-12-06T11:56:26.981Z,100864.63
2022-12-06T11:59:28.763Z,100857.63
2022-12-06T12:02:03.724Z,100850.69
2022-12-06T12:04:39.671Z,100851.88
2022-12-06T12:07:16.545Z,100847.34
2022-12-06T12:10:05.319Z,100852.28
2022-12-06T12:13:04.403Z,100846.94
2022-12-06T12:15:33.620Z,100846.84
2022-12-06T12:18:03.194Z,100837.50
2022-12-06T12:20:36.572Z,100846.97
2022-12-06T12:23:18.540Z,100844.31
2022-12-06T12:26:03.290Z,100839.00
2022-12-06T12:28:34.232Z,100840.56
2022-12-06T12:31:22.481Z,100828.34
2022-12-06T12:34:25.241Z,100819.34
2022-12-06T12:37:04.714Z,100824.59
2022-12-06T12:39:41.720Z,100814.03
2022-12-06T12:42:40.400Z,100815.19
2022-12-06T12:45:20.080Z,100810.84
2022-12-06T12:48:05.419Z,100809.13
2022-12-06T12:50:34.082Z,100811.84
2022-12-06T12:53:02.493Z,100810.47
2022-12-06T12:55:32.105Z,100807.72
2022-12-06T12:58:01.431Z,100808.69
2022-12-06T13:00:38.230Z,100796.69
2022-12-06T13:03:42.398Z,100785.91
2022-12-06T13:06:01.864Z,100782.69
2022-12-06T13:08:35.881Z,100783.00
2022-12-06T13:11:05.846Z,100785.78
2022-12-06T13:13:44.453Z,100785.03
2022-12-06T13:16:18.855Z,100789.44
2022-12-06T13:18:52.277Z,100780.84
2022-12-06T13:21:24.394Z,100780.06
2022-12-06T13:24:22.474Z,100768.69
2022-12-06T13:26:58.726Z,100769.81
2022-12-06T13:29:27.008Z,100777.03
2022-12-06T13:31:58.786Z,100772.53
2022-12-06T13:34:37.379Z,100778.97
2022-12-06T13:37:58.705Z,100780.69
2022-12-06T13:40:33.135Z,100764.88
2022-12-06T13:43:23.217Z,100770.22
2022-12-06T13:46:15.182Z,100769.38
2022-12-06T13:48:57.485Z,100768.56
2022-12-06T13:51:32.074Z,100773.00
2022-12-06T13:54:06.576Z,100768.56
2022-12-06T13:56:35.031Z,100772.03
2022-12-06T13:59:12.995Z,100770.41
2022-12-06T14:01:52.343Z,100777.66
2022-12-06T14:05:00.820Z,100762.84
2022-12-06T14:07:36.565Z,100767.34
2022-12-06T14:10:13.604Z,100774.53
2022-12-06T14:12:41.906Z,100765.63
2022-12-06T14:15:20.262Z,100769.56
2022-12-06T14:18:10.985Z,100769.69
2022-12-06T14:20:37.346Z,100773.28
2022-12-06T14:23:23.145Z,100773.59
2022-12-06T14:25:51.845Z,100781.69
2022-12-06T14:28:20.116Z,100776.31
2022-12-06T14:30:49.998Z,100777.78
2022-12-06T14:33:21.907Z,100771.72
2022-12-06T14:35:54.809Z,100783.28
2022-12-06T14:38:29.325Z,100775.63
2022-12-06T14:41:17.126Z,100785.38
2022-12-06T14:43:48.525Z,100776.72
2022-12-06T14:46:18.372Z,100781.91
2022-12-06T14:49:05.487Z,100779.59
2022-12-06T14:51:43.091Z,100782.38
2022-12-06T14:54:33.375Z,100779.81
2022-12-06T14:57:02.926Z,100779.66
2022-12-06T15:02:28.888Z,100777.19
2022-12-06T15:04:58.037Z,100778.56
2022-12-06T15:07:43.688Z,100771.63
2022-12-06T15:10:22.104Z,100773.03
2022-12-06T15:12:58.189Z,100774.22
2022-12-06T15:15:37.505Z,100766.44
2022-12-06T15:18:15.077Z,100769.09
2022-12-06T15:20:43.364Z,100773.84
2022-12-06T15:23:28.216Z,100772.13
2022-12-06T15:25:56.638Z,100779.03
2022-12-06T15:28:25.341Z,100773.94
2022-12-06T15:30:53.753Z,100774.72
2022-12-06T15:33:24.588Z,100782.94
2022-12-06T15:35:53.157Z,100781.09
2022-12-06T15:38:21.874Z,100780.69
2022-12-06T15:40:51.985Z,100776.34
2022-12-06T15:43:32.426Z,100787.38
2022-12-06T15:46:03.137Z,100785.59
2022-12-06T15:48:35.276Z,100779.56
2022-12-06T15:51:10.360Z,100784.06
2022-12-06T15:53:39.865Z,100788.78
2022-12-06T15:56:16.746Z,100784.16
2022-12-06T15:58:46.945Z,100787.94
2022-12-06T16:01:22.402Z,100787.06
2022-12-06T16:03:53.485Z,100789.38
2022-12-06T16:06:23.498Z,100786.75
2022-12-06T16:08:52.565Z,100785.78
2022-12-06T16:11:24.164Z,100788.09
2022-12-06T16:13:53.625Z,100782.84
2022-12-06T16:16:23.175Z,100787.94
2022-12-06T16:18:55.523Z,100778.06
2022-12-06T16:21:29.875Z,100777.75
2022-12-06T16:24:13.200Z,100782.94
2022-12-06T16:26:44.765Z,100778.06
2022-12-06T16:29:19.308Z,100781.31
2022-12-06T16:31:48.044Z,100768.84
2022-12-06T16:34:17.665Z,100770.47
2022-12-06T16:37:00.732Z,100780.06
2022-12-06T16:39:31.495Z,100784.84
2022-12-06T16:42:00.565Z,100777.97
2022-12-06T16:44:53.225Z,100783.03
2022-12-06T16:49:50.015Z,100778.81
2022-12-06T16:52:18.597Z,100774.44
2022-12-06T16:54:46.917Z,100776.59
2022-12-06T16:57:15.580Z,100773.00
2022-12-06T16:59:44.060Z,100778.84
2022-12-06T17:02:27.044Z,100777.72
2022-12-06T17:04:59.192Z,100771.00
2022-12-06T17:07:28.585Z,100776.56
2022-12-06T17:09:57.004Z,100768.34
2022-12-06T17:12:25.789Z,100771.41
2022-12-06T17:14:54.085Z,100773.13
2022-12-06T17:17:22.984Z,100770.72
2022-12-06T17:19:51.275Z,100773.47
2022-12-06T17:22:20.046Z,100770.97
2022-12-06T17:24:49.365Z,100764.13
2022-12-06T17:27:18.444Z,100759.16
2022-12-06T17:29:47.168Z,100756.94
2022-12-06T17:32:16.064Z,100759.66
2022-12-06T17:34:44.684Z,100762.44
2022-12-06T17:37:13.249Z,100770.44
2022-12-06T17:39:42.218Z,100771.22
2022-12-06T17:42:31.748Z,100771.66
2022-12-06T17:45:00.861Z,100771.59
2022-12-06T17:47:30.486Z,100770.66
2022-12-06T17:49:59.342Z,100772.38
2022-12-06T17:52:28.025Z,100772.38
2022-12-06T17:54:56.648Z,100777.72
2022-12-06T17:57:24.942Z,100784.84
2022-12-06T17:59:53.546Z,100778.31
2022-12-06T18:02:24.738Z,100774.03
2022-12-06T18:04:56.447Z,100770.44
2022-12-06T18:07:24.827Z,100779.03
2022-12-06T18:09:53.666Z,100783.16
2022-12-06T18:12:22.057Z,100783.34
2022-12-06T18:14:50.685Z,100782.69
2022-12-06T18:17:19.014Z,100782.75
2022-12-06T18:19:47.558Z,100781.25
2022-12-06T18:22:16.273Z,100775.38
2022-12-06T18:24:45.022Z,100765.97
2022-12-06T18:27:13.407Z,100768.56
2022-12-06T18:29:42.353Z,100768.13
2022-12-06T18:32:10.708Z,100764.63
2022-12-06T18:34:40.381Z,100775.19
2022-12-06T18:37:08.745Z,100777.78
2022-12-06T18:39:37.825Z,100773.91
2022-12-06T18:42:06.256Z,100777.50
2022-12-06T18:44:36.286Z,100773.75
2022-12-06T18:47:04.616Z,100780.38
2022-12-06T18:49:33.328Z,100780.47
2022-12-06T18:52:01.526Z,100785.56
2022-12-06T18:54:30.156Z,100788.47
2022-12-06T18:56:59.435Z,100785.34
2022-12-06T18:59:28.969Z,100781.13
2022-12-06T19:01:57.350Z,100779.50
2022-12-06T19:04:26.074Z,100782.31
2022-12-06T19:06:54.617Z,100782.31
2022-12-06T19:09:24.834Z,100776.13
2022-12-06T19:11:53.225Z,100779.81
2022-12-06T19:14:23.358Z,100783.47
2022-12-06T19:16:52.194Z,100786.44
2022-12-06T19:19:24.265Z,100793.94
2022-12-06T19:21:54.687Z,100789.53
2022-12-06T19:24:26.017Z,100797.78
2022-12-06T19:26:55.849Z,100787.22
2022-12-06T19:29:25.497Z,100789.38
2022-12-06T19:31:54.403Z,100786.97
2022-12-06T19:34:25.836Z,100781.91
2022-12-06T19:36:54.997Z,100776.75
2022-12-06T19:39:24.405Z,100776.66
2022-12-06T19:42:12.167Z,100784.84
2022-12-06T19:44:42.246Z,100782.44
2022-12-06T19:47:10.763Z,100784.31
2022-12-06T19:49:39.926Z,100778.47
2022-12-06T19:52:08.332Z,100780.72
2022-12-06T19:54:37.702Z,100776.38
2022-12-06T19:57:06.099Z,100784.19
2022-12-06T19:59:36.107Z,100776.44
2022-12-06T20:02:06.541Z,100776.44
2022-12-06T20:04:37.786Z,100787.56
2022-12-06T20:07:07.084Z,100788.13
2022-12-06T20:09:37.315Z,100784.84
2022-12-06T20:12:06.008Z,100780.81
2022-12-06T20:14:40.197Z,100780.81
2022-12-06T20:17:14.563Z,100780.25
2022-12-06T20:19:43.626Z,100778.81
2022-12-06T20:22:13.894Z,100776.78
2022-12-06T20:24:43.274Z,100771.47
2022-12-06T20:27:12.176Z,100766.13
2022-12-06T20:29:41.105Z,100770.59
2022-12-06T20:32:10.676Z,100761.25
2022-12-06T20:34:40.116Z,100765.78
2022-12-06T20:37:08.468Z,100752.75
2022-12-06T20:39:37.267Z,100759.84
2022-12-06T20:42:08.559Z,100753.16
2022-12-06T20:44:37.186Z,100746.31
2022-12-06T20:47:05.544Z,100749.34
2022-12-06T20:49:34.995Z,100739.56
2022-12-06T20:52:05.066Z,100744.06
2022-12-06T20:54:34.930Z,100750.41
2022-12-06T20:57:08.295Z,100743.72
2022-12-06T20:59:38.293Z,100743.88
2022-12-06T21:02:06.931Z,100742.16
2022-12-06T21:04:36.751Z,100746.50
2022-12-06T21:07:05.406Z,100740.88
2022-12-06T21:09:34.191Z,100743.94
2022-12-06T21:12:02.760Z,100741.91
2022-12-06T21:14:32.549Z,100737.88
2022-12-06T21:17:01.375Z,100735.84
2022-12-06T21:19:30.096Z,100737.44
2022-12-06T21:22:01.416Z,100747.66
2022-12-06T21:24:30.065Z,100749.06
2022-12-06T21:26:58.397Z,100757.47
2022-12-06T21:29:30.922Z,100753.75
2022-12-06T21:32:02.775Z,100736.81
2022-12-06T21:34:31.369Z,100748.47
2022-12-06T21:36:59.735Z,100747.63
2022-12-06T21:39:29.725Z,100748.66
2022-12-06T21:41:58.247Z,100754.13
2022-12-06T21:44:26.842Z,100755.19
2022-12-06T21:46:55.248Z,100752.91
2022-12-06T21:49:23.993Z,100752.19
2022-12-06T21:52:00.206Z,100753.94
2022-12-06T21:54:30.863Z,100751.59
2022-12-06T21:56:59.115Z,100754.47
2022-12-06T21:59:27.881Z,100753.97
2022-12-06T22:01:56.381Z,100745.19
2022-12-06T22:04:25.022Z,100744.50
2022-12-06T22:06:53.603Z,100740.78
2022-12-06T22:09:22.427Z,100739.31
2022-12-06T22:11:50.934Z,100741.34
2022-12-06T22:14:20.935Z,100739.88
2022-12-06T22:16:53.064Z,100743.53
2022-12-06T22:19:22.363Z,100743.72
2022-12-06T22:21:50.839Z,100745.63
2022-12-06T22:24:19.623Z,100754.66
2022-12-06T22:26:48.050Z,100747.75
2022-12-06T22:29:17.943Z,100757.69
2022-12-06T22:31:46.509Z,100758.06
2022-12-06T22:34:15.064Z,100755.19
2022-12-06T22:36:43.532Z,100761.03
2022-12-06T22:39:12.152Z,100752.41
2022-12-06T22:41:40.374Z,100748.00
2022-12-06T22:44:12.517Z,100757.81
2022-12-06T22:46:40.913Z,100749.88
2022-12-06T22:49:17.690Z,100744.75
2022-12-06T22:51:47.334Z,100750.25
2022-12-06T22:54:17.558Z,100749.78
2022-12-06T22:56:49.344Z,100750.59
2022-12-06T22:59:19.365Z,100748.19
2022-12-06T23:01:47.592Z,100753.38
2022-12-06T23:04:16.382Z,100749.09
2022-12-06T23:06:44.628Z,100758.81
2022-12-06T23:09:15.989Z,100754.53
2022-12-06T23:11:44.442Z,100754.38
2022-12-06T23:14:13.212Z,100752.81
2022-12-06T23:16:44.053Z,100741.25
2022-12-06T23:19:14.033Z,100747.38
2022-12-06T23:21:43.058Z,100752.16
2022-12-06T23:24:14.270Z,100743.09
2022-12-06T23:26:45.329Z,100738.47
2022-12-06T23:29:15.465Z,100736.97
2022-12-06T23:31:45.647Z,100729.75
2022-12-06T23:34:22.543Z,100733.38
2022-12-06T23:36:51.103Z,100726.44
2022-12-06T23:39:20.307Z,100729.28
2022-12-06T23:41:48.693Z,100716.75
2022-12-06T23:44:17.371Z,100709.16
2022-12-06T23:46:46.208Z,100702.78
2022-12-06T23:49:18.414Z,100701.22
2022-12-06T23:51:47.496Z,100700.19
2022-12-06T23:54:17.373Z,100693.59
2022-12-06T23:56:46.495Z,100700.63
2022-12-06T23:59:16.172Z,100699.94
